sensor_id;sensor_type;location;lat;lon;timestamp;P1;durP1;ratioP1;P2;durP2;ratioP2
37303;SDS011;23188;51.188;16.374;2022-08-23T00:01:46;15.70;;;11.08;;
37303;SDS011;23188;51.188;16.374;2022-08-23T00:05:49;13.45;;;12.18;;
37303;SDS011;23188;51.188;16.374;2022-08-23T00:09:51;12.15;;;10.03;;
37303;SDS011;23188;51.188;16.374;2022-08-23T00:13:52;12.05;;;10.65;;
37303;SDS011;23188;51.188;16.374;2022-08-23T00:17:54;15.48;;;12.40;;
37303;SDS011;23188;51.188;16.374;2022-08-23T00:21:55;11.28;;;10.03;;
37303;SDS011;23188;51.188;16.374;2022-08-23T00:25:56;15.43;;;10.88;;
37303;SDS011;23188;51.188;16.374;2022-08-23T00:30:04;13.08;;;10.28;;
37303;SDS011;23188;51.188;16.374;2022-08-23T00:34:08;13.13;;;10.78;;
37303;SDS011;23188;51.188;16.374;2022-08-23T00:38:09;13.15;;;9.55;;
37303;SDS011;23188;51.188;16.374;2022-08-23T00:42:27;9.98;;;9.00;;
37303;SDS011;23188;51.188;16.374;2022-08-23T00:46:56;11.30;;;10.23;;
37303;SDS011;23188;51.188;16.374;2022-08-23T00:51:24;14.00;;;10.80;;
37303;SDS011;23188;51.188;16.374;2022-08-23T00:55:39;12.53;;;9.55;;
37303;SDS011;23188;51.188;16.374;2022-08-23T00:59:42;12.25;;;8.95;;
37303;SDS011;23188;51.188;16.374;2022-08-23T01:03:45;11.08;;;7.85;;
37303;SDS011;23188;51.188;16.374;2022-08-23T01:07:51;9.43;;;8.23;;
37303;SDS011;23188;51.188;16.374;2022-08-23T01:12:03;8.60;;;7.80;;
37303;SDS011;23188;51.188;16.374;2022-08-23T01:16:16;9.03;;;8.15;;
37303;SDS011;23188;51.188;16.374;2022-08-23T01:20:21;13.35;;;8.68;;
37303;SDS011;23188;51.188;16.374;2022-08-23T01:24:24;8.40;;;7.67;;
37303;SDS011;23188;51.188;16.374;2022-08-23T01:28:26;8.05;;;7.10;;
37303;SDS011;23188;51.188;16.374;2022-08-23T01:32:28;9.33;;;8.43;;
37303;SDS011;23188;51.188;16.374;2022-08-23T01:36:29;9.55;;;8.45;;
37303;SDS011;23188;51.188;16.374;2022-08-23T01:40:32;8.58;;;6.80;;
37303;SDS011;23188;51.188;16.374;2022-08-23T01:44:36;9.23;;;6.60;;
37303;SDS011;23188;51.188;16.374;2022-08-23T01:48:37;6.85;;;6.25;;
37303;SDS011;23188;51.188;16.374;2022-08-23T01:52:39;8.50;;;7.60;;
37303;SDS011;23188;51.188;16.374;2022-08-23T01:56:42;9.28;;;7.08;;
37303;SDS011;23188;51.188;16.374;2022-08-23T02:00:44;10.95;;;8.03;;
37303;SDS011;23188;51.188;16.374;2022-08-23T02:04:45;6.47;;;5.85;;
37303;SDS011;23188;51.188;16.374;2022-08-23T02:08:46;8.38;;;7.58;;
37303;SDS011;23188;51.188;16.374;2022-08-23T02:13:03;10.93;;;7.60;;
37303;SDS011;23188;51.188;16.374;2022-08-23T02:17:04;10.90;;;9.03;;
37303;SDS011;23188;51.188;16.374;2022-08-23T02:21:06;9.65;;;8.68;;
37303;SDS011;23188;51.188;16.374;2022-08-23T02:25:09;12.20;;;9.10;;
37303;SDS011;23188;51.188;16.374;2022-08-23T02:29:11;9.40;;;8.45;;
37303;SDS011;23188;51.188;16.374;2022-08-23T02:33:14;9.05;;;8.25;;
37303;SDS011;23188;51.188;16.374;2022-08-23T02:37:16;11.03;;;7.97;;
37303;SDS011;23188;51.188;16.374;2022-08-23T02:41:17;8.98;;;6.05;;
37303;SDS011;23188;51.188;16.374;2022-08-23T02:45:19;12.30;;;6.75;;
37303;SDS011;23188;51.188;16.374;2022-08-23T02:49:20;8.05;;;6.80;;
37303;SDS011;23188;51.188;16.374;2022-08-23T02:53:22;7.62;;;6.30;;
37303;SDS011;23188;51.188;16.374;2022-08-23T02:57:23;10.28;;;8.05;;
37303;SDS011;23188;51.188;16.374;2022-08-23T03:01:33;11.15;;;8.75;;
37303;SDS011;23188;51.188;16.374;2022-08-23T03:05:34;11.40;;;9.75;;
37303;SDS011;23188;51.188;16.374;2022-08-23T03:09:35;7.75;;;6.17;;
37303;SDS011;23188;51.188;16.374;2022-08-23T03:13:37;8.03;;;6.15;;
37303;SDS011;23188;51.188;16.374;2022-08-23T03:17:40;7.83;;;5.75;;
37303;SDS011;23188;51.188;16.374;2022-08-23T03:21:41;7.33;;;6.25;;
37303;SDS011;23188;51.188;16.374;2022-08-23T03:25:43;7.22;;;5.62;;
37303;SDS011;23188;51.188;16.374;2022-08-23T03:29:44;8.00;;;5.95;;
37303;SDS011;23188;51.188;16.374;2022-08-23T03:33:45;7.78;;;6.83;;
37303;SDS011;23188;51.188;16.374;2022-08-23T03:37:46;6.85;;;5.70;;
37303;SDS011;23188;51.188;16.374;2022-08-23T03:41:48;6.42;;;5.45;;
37303;SDS011;23188;51.188;16.374;2022-08-23T03:45:49;7.08;;;6.37;;
37303;SDS011;23188;51.188;16.374;2022-08-23T03:49:50;8.88;;;6.30;;
37303;SDS011;23188;51.188;16.374;2022-08-23T03:53:51;7.33;;;5.78;;
37303;SDS011;23188;51.188;16.374;2022-08-23T03:57:53;9.50;;;6.30;;
37303;SDS011;23188;51.188;16.374;2022-08-23T04:01:54;7.95;;;7.25;;
37303;SDS011;23188;51.188;16.374;2022-08-23T04:05:55;7.85;;;6.83;;
37303;SDS011;23188;51.188;16.374;2022-08-23T04:09:57;8.10;;;7.25;;
37303;SDS011;23188;51.188;16.374;2022-08-23T04:13:58;10.63;;;7.83;;
37303;SDS011;23188;51.188;16.374;2022-08-23T04:17:59;9.00;;;7.45;;
37303;SDS011;23188;51.188;16.374;2022-08-23T04:22:01;7.60;;;6.30;;
37303;SDS011;23188;51.188;16.374;2022-08-23T04:26:03;14.70;;;8.43;;
37303;SDS011;23188;51.188;16.374;2022-08-23T04:30:05;9.10;;;7.30;;
37303;SDS011;23188;51.188;16.374;2022-08-23T04:34:07;13.05;;;9.58;;
37303;SDS011;23188;51.188;16.374;2022-08-23T04:38:09;8.48;;;7.53;;
37303;SDS011;23188;51.188;16.374;2022-08-23T04:42:11;7.92;;;7.10;;
37303;SDS011;23188;51.188;16.374;2022-08-23T04:46:18;8.15;;;7.25;;
37303;SDS011;23188;51.188;16.374;2022-08-23T04:50:20;8.55;;;7.67;;
37303;SDS011;23188;51.188;16.374;2022-08-23T04:54:21;8.63;;;7.85;;
37303;SDS011;23188;51.188;16.374;2022-08-23T04:58:23;8.33;;;7.65;;
37303;SDS011;23188;51.188;16.374;2022-08-23T05:02:24;7.92;;;7.22;;
37303;SDS011;23188;51.188;16.374;2022-08-23T05:06:25;8.75;;;7.92;;
37303;SDS011;23188;51.188;16.374;2022-08-23T05:10:28;10.85;;;8.90;;
37303;SDS011;23188;51.188;16.374;2022-08-23T05:14:29;9.70;;;8.83;;
37303;SDS011;23188;51.188;16.374;2022-08-23T05:18:30;8.28;;;7.47;;
37303;SDS011;23188;51.188;16.374;2022-08-23T05:22:33;9.75;;;8.75;;
37303;SDS011;23188;51.188;16.374;2022-08-23T05:26:40;8.25;;;7.47;;
37303;SDS011;23188;51.188;16.374;2022-08-23T05:30:41;10.38;;;9.28;;
37303;SDS011;23188;51.188;16.374;2022-08-23T05:34:42;8.48;;;7.42;;
37303;SDS011;23188;51.188;16.374;2022-08-23T05:38:44;8.85;;;8.05;;
37303;SDS011;23188;51.188;16.374;2022-08-23T05:42:49;9.18;;;8.28;;
37303;SDS011;23188;51.188;16.374;2022-08-23T05:46:50;10.18;;;9.18;;
37303;SDS011;23188;51.188;16.374;2022-08-23T05:50:51;9.70;;;8.75;;
37303;SDS011;23188;51.188;16.374;2022-08-23T05:54:53;9.23;;;8.43;;
37303;SDS011;23188;51.188;16.374;2022-08-23T05:58:55;8.60;;;7.80;;
37303;SDS011;23188;51.188;16.374;2022-08-23T06:03:00;11.00;;;9.90;;
37303;SDS011;23188;51.188;16.374;2022-08-23T06:07:01;18.80;;;17.07;;
37303;SDS011;23188;51.188;16.374;2022-08-23T06:11:06;15.10;;;13.43;;
37303;SDS011;23188;51.188;16.374;2022-08-23T06:15:14;15.63;;;12.73;;
37303;SDS011;23188;51.188;16.374;2022-08-23T06:19:15;10.50;;;9.50;;
37303;SDS011;23188;51.188;16.374;2022-08-23T06:23:17;10.35;;;9.15;;
37303;SDS011;23188;51.188;16.374;2022-08-23T06:27:18;9.13;;;8.23;;
37303;SDS011;23188;51.188;16.374;2022-08-23T06:31:21;9.63;;;8.05;;
37303;SDS011;23188;51.188;16.374;2022-08-23T06:35:43;9.85;;;8.85;;
37303;SDS011;23188;51.188;16.374;2022-08-23T06:39:44;9.20;;;8.28;;
37303;SDS011;23188;51.188;16.374;2022-08-23T06:43:45;7.50;;;6.80;;
37303;SDS011;23188;51.188;16.374;2022-08-23T06:47:46;9.25;;;8.35;;
37303;SDS011;23188;51.188;16.374;2022-08-23T06:51:48;10.88;;;8.98;;
37303;SDS011;23188;51.188;16.374;2022-08-23T06:55:52;9.33;;;8.53;;
37303;SDS011;23188;51.188;16.374;2022-08-23T06:59:54;10.15;;;9.23;;
37303;SDS011;23188;51.188;16.374;2022-08-23T07:03:56;8.00;;;6.95;;
37303;SDS011;23188;51.188;16.374;2022-08-23T07:07:58;9.38;;;8.48;;
37303;SDS011;23188;51.188;16.374;2022-08-23T07:12:00;8.08;;;7.28;;
37303;SDS011;23188;51.188;16.374;2022-08-23T07:16:02;6.05;;;5.55;;
37303;SDS011;23188;51.188;16.374;2022-08-23T07:20:03;7.85;;;7.15;;
37303;SDS011;23188;51.188;16.374;2022-08-23T07:24:06;7.60;;;6.83;;
37303;SDS011;23188;51.188;16.374;2022-08-23T07:28:08;7.03;;;6.40;;
37303;SDS011;23188;51.188;16.374;2022-08-23T07:32:11;5.37;;;4.87;;
37303;SDS011;23188;51.188;16.374;2022-08-23T07:36:14;4.83;;;4.42;;
37303;SDS011;23188;51.188;16.374;2022-08-23T07:40:17;4.92;;;4.53;;
37303;SDS011;23188;51.188;16.374;2022-08-23T07:44:19;6.12;;;4.33;;
37303;SDS011;23188;51.188;16.374;2022-08-23T07:48:20;4.33;;;3.92;;
37303;SDS011;23188;51.188;16.374;2022-08-23T07:52:22;6.83;;;5.33;;
37303;SDS011;23188;51.188;16.374;2022-08-23T07:56:23;4.62;;;4.22;;
37303;SDS011;23188;51.188;16.374;2022-08-23T08:00:25;8.70;;;7.80;;
37303;SDS011;23188;51.188;16.374;2022-08-23T08:04:26;6.00;;;5.40;;
37303;SDS011;23188;51.188;16.374;2022-08-23T08:08:28;6.95;;;6.30;;
37303;SDS011;23188;51.188;16.374;2022-08-23T08:12:29;7.90;;;6.55;;
37303;SDS011;23188;51.188;16.374;2022-08-23T08:16:34;6.03;;;5.50;;
37303;SDS011;23188;51.188;16.374;2022-08-23T08:20:41;4.53;;;4.12;;
37303;SDS011;23188;51.188;16.374;2022-08-23T08:24:44;3.37;;;3.10;;
37303;SDS011;23188;51.188;16.374;2022-08-23T08:28:45;4.30;;;3.85;;
37303;SDS011;23188;51.188;16.374;2022-08-23T08:32:47;4.47;;;4.08;;
37303;SDS011;23188;51.188;16.374;2022-08-23T08:36:49;4.25;;;3.92;;
37303;SDS011;23188;51.188;16.374;2022-08-23T08:45:14;3.17;;;2.95;;
37303;SDS011;23188;51.188;16.374;2022-08-23T08:49:19;2.60;;;2.40;;
37303;SDS011;23188;51.188;16.374;2022-08-23T08:53:42;2.72;;;2.25;;
37303;SDS011;23188;51.188;16.374;2022-08-23T08:57:46;2.00;;;1.80;;
37303;SDS011;23188;51.188;16.374;2022-08-23T09:01:50;1.60;;;1.47;;
37303;SDS011;23188;51.188;16.374;2022-08-23T09:05:53;2.80;;;2.50;;
37303;SDS011;23188;51.188;16.374;2022-08-23T09:10:04;3.40;;;2.90;;
37303;SDS011;23188;51.188;16.374;2022-08-23T09:14:16;2.40;;;2.10;;
37303;SDS011;23188;51.188;16.374;2022-08-23T09:18:37;2.20;;;2.00;;
37303;SDS011;23188;51.188;16.374;2022-08-23T09:22:40;4.58;;;2.30;;
37303;SDS011;23188;51.188;16.374;2022-08-23T09:26:45;2.58;;;2.00;;
37303;SDS011;23188;51.188;16.374;2022-08-23T09:30:53;2.35;;;1.72;;
37303;SDS011;23188;51.188;16.374;2022-08-23T09:39:26;0.85;;;0.85;;
37303;SDS011;23188;51.188;16.374;2022-08-23T09:43:31;1.75;;;1.65;;
37303;SDS011;23188;51.188;16.374;2022-08-23T09:47:38;1.47;;;1.05;;
37303;SDS011;23188;51.188;16.374;2022-08-23T09:51:41;1.27;;;1.17;;
37303;SDS011;23188;51.188;16.374;2022-08-23T09:55:47;1.82;;;1.62;;
37303;SDS011;23188;51.188;16.374;2022-08-23T09:59:52;1.57;;;1.25;;
37303;SDS011;23188;51.188;16.374;2022-08-23T10:08:37;1.92;;;1.82;;
37303;SDS011;23188;51.188;16.374;2022-08-23T10:12:41;2.85;;;2.65;;
37303;SDS011;23188;51.188;16.374;2022-08-23T10:25:50;4.87;;;3.05;;
37303;SDS011;23188;51.188;16.374;2022-08-23T10:30:03;4.80;;;2.80;;
37303;SDS011;23188;51.188;16.374;2022-08-23T10:39:01;2.77;;;2.55;;
37303;SDS011;23188;51.188;16.374;2022-08-23T10:43:18;4.37;;;3.35;;
37303;SDS011;23188;51.188;16.374;2022-08-23T10:59:47;3.37;;;3.05;;
37303;SDS011;23188;51.188;16.374;2022-08-23T11:04:05;3.10;;;2.83;;
37303;SDS011;23188;51.188;16.374;2022-08-23T11:08:11;5.78;;;5.17;;
37303;SDS011;23188;51.188;16.374;2022-08-23T11:12:35;6.80;;;5.80;;
37303;SDS011;23188;51.188;16.374;2022-08-23T11:16:56;13.05;;;6.45;;
37303;SDS011;23188;51.188;16.374;2022-08-23T11:21:06;5.40;;;4.78;;
37303;SDS011;23188;51.188;16.374;2022-08-23T11:33:44;14.07;;;7.10;;
37303;SDS011;23188;51.188;16.374;2022-08-23T11:37:57;9.93;;;8.98;;
37303;SDS011;23188;51.188;16.374;2022-08-23T11:42:03;10.08;;;8.33;;
37303;SDS011;23188;51.188;16.374;2022-08-23T11:46:24;10.50;;;7.78;;
37303;SDS011;23188;51.188;16.374;2022-08-23T11:50:43;11.45;;;9.80;;
37303;SDS011;23188;51.188;16.374;2022-08-23T11:59:42;15.05;;;12.28;;
37303;SDS011;23188;51.188;16.374;2022-08-23T12:04:25;9.45;;;8.45;;
37303;SDS011;23188;51.188;16.374;2022-08-23T12:08:52;12.47;;;11.15;;
37303;SDS011;23188;51.188;16.374;2022-08-23T12:21:42;27.98;;;21.97;;
37303;SDS011;23188;51.188;16.374;2022-08-23T12:25:59;28.45;;;22.45;;
37303;SDS011;23188;51.188;16.374;2022-08-23T12:34:26;30.45;;;22.75;;
37303;SDS011;23188;51.188;16.374;2022-08-23T12:43:16;28.23;;;21.27;;
37303;SDS011;23188;51.188;16.374;2022-08-23T12:47:27;30.20;;;24.40;;
37303;SDS011;23188;51.188;16.374;2022-08-23T12:51:29;28.47;;;20.05;;
37303;SDS011;23188;51.188;16.374;2022-08-23T12:55:32;33.80;;;21.90;;
37303;SDS011;23188;51.188;16.374;2022-08-23T12:59:47;30.50;;;22.62;;
37303;SDS011;23188;51.188;16.374;2022-08-23T13:04:12;28.67;;;22.05;;
37303;SDS011;23188;51.188;16.374;2022-08-23T13:08:17;31.00;;;21.35;;
37303;SDS011;23188;51.188;16.374;2022-08-23T13:12:28;37.67;;;23.40;;
37303;SDS011;23188;51.188;16.374;2022-08-23T13:16:32;36.25;;;26.05;;
37303;SDS011;23188;51.188;16.374;2022-08-23T13:20:39;25.75;;;17.57;;
37303;SDS011;23188;51.188;16.374;2022-08-23T13:24:42;26.10;;;17.77;;
37303;SDS011;23188;51.188;16.374;2022-08-23T13:33:21;24.05;;;17.98;;
37303;SDS011;23188;51.188;16.374;2022-08-23T13:37:30;24.77;;;18.48;;
37303;SDS011;23188;51.188;16.374;2022-08-23T13:41:33;35.10;;;17.60;;
37303;SDS011;23188;51.188;16.374;2022-08-23T13:45:44;24.23;;;18.15;;
37303;SDS011;23188;51.188;16.374;2022-08-23T13:49:49;19.90;;;16.65;;
37303;SDS011;23188;51.188;16.374;2022-08-23T13:53:52;24.43;;;18.37;;
37303;SDS011;23188;51.188;16.374;2022-08-23T13:57:56;20.37;;;14.90;;
37303;SDS011;23188;51.188;16.374;2022-08-23T14:01:59;16.93;;;15.15;;
37303;SDS011;23188;51.188;16.374;2022-08-23T14:06:04;15.95;;;14.28;;
37303;SDS011;23188;51.188;16.374;2022-08-23T14:10:06;17.57;;;12.85;;
37303;SDS011;23188;51.188;16.374;2022-08-23T14:14:11;14.75;;;12.78;;
37303;SDS011;23188;51.188;16.374;2022-08-23T14:18:14;12.80;;;10.13;;
37303;SDS011;23188;51.188;16.374;2022-08-23T14:22:16;13.53;;;10.38;;
37303;SDS011;23188;51.188;16.374;2022-08-23T14:26:20;11.05;;;8.43;;
37303;SDS011;23188;51.188;16.374;2022-08-23T14:30:27;11.50;;;9.60;;
37303;SDS011;23188;51.188;16.374;2022-08-23T14:34:33;9.65;;;8.68;;
37303;SDS011;23188;51.188;16.374;2022-08-23T14:38:35;11.18;;;8.85;;
37303;SDS011;23188;51.188;16.374;2022-08-23T14:42:36;13.43;;;10.53;;
37303;SDS011;23188;51.188;16.374;2022-08-23T14:46:38;13.43;;;9.98;;
37303;SDS011;23188;51.188;16.374;2022-08-23T14:50:40;14.68;;;13.10;;
37303;SDS011;23188;51.188;16.374;2022-08-23T14:54:42;15.38;;;12.23;;
37303;SDS011;23188;51.188;16.374;2022-08-23T14:58:43;14.80;;;12.60;;
37303;SDS011;23188;51.188;16.374;2022-08-23T15:02:45;15.68;;;13.05;;
37303;SDS011;23188;51.188;16.374;2022-08-23T15:06:50;16.25;;;14.03;;
37303;SDS011;23188;51.188;16.374;2022-08-23T15:10:52;11.08;;;9.98;;
37303;SDS011;23188;51.188;16.374;2022-08-23T15:14:54;13.08;;;11.75;;
37303;SDS011;23188;51.188;16.374;2022-08-23T15:18:55;12.68;;;9.85;;
37303;SDS011;23188;51.188;16.374;2022-08-23T15:22:57;9.68;;;8.68;;
37303;SDS011;23188;51.188;16.374;2022-08-23T15:26:59;12.00;;;8.35;;
37303;SDS011;23188;51.188;16.374;2022-08-23T15:31:03;10.72;;;8.20;;
37303;SDS011;23188;51.188;16.374;2022-08-23T15:35:05;8.55;;;6.83;;
37303;SDS011;23188;51.188;16.374;2022-08-23T15:39:08;6.85;;;5.33;;
37303;SDS011;23188;51.188;16.374;2022-08-23T15:43:10;5.83;;;5.17;;
37303;SDS011;23188;51.188;16.374;2022-08-23T15:47:19;8.75;;;6.87;;
37303;SDS011;23188;51.188;16.374;2022-08-23T15:51:27;6.05;;;5.37;;
37303;SDS011;23188;51.188;16.374;2022-08-23T15:55:32;7.20;;;5.80;;
37303;SDS011;23188;51.188;16.374;2022-08-23T15:59:35;17.77;;;4.87;;
37303;SDS011;23188;51.188;16.374;2022-08-23T16:03:38;7.08;;;6.12;;
37303;SDS011;23188;51.188;16.374;2022-08-23T16:07:43;5.62;;;4.10;;
37303;SDS011;23188;51.188;16.374;2022-08-23T16:11:45;6.17;;;5.58;;
37303;SDS011;23188;51.188;16.374;2022-08-23T16:15:46;7.03;;;6.42;;
37303;SDS011;23188;51.188;16.374;2022-08-23T16:19:48;7.72;;;5.20;;
37303;SDS011;23188;51.188;16.374;2022-08-23T16:23:56;5.15;;;4.65;;
37303;SDS011;23188;51.188;16.374;2022-08-23T16:27:56;3.80;;;3.25;;
37303;SDS011;23188;51.188;16.374;2022-08-23T16:31:58;4.40;;;3.98;;
37303;SDS011;23188;51.188;16.374;2022-08-23T16:35:59;4.85;;;3.45;;
37303;SDS011;23188;51.188;16.374;2022-08-23T16:40:01;6.30;;;2.85;;
37303;SDS011;23188;51.188;16.374;2022-08-23T16:44:05;3.55;;;2.87;;
37303;SDS011;23188;51.188;16.374;2022-08-23T16:48:07;4.22;;;3.92;;
37303;SDS011;23188;51.188;16.374;2022-08-23T16:52:08;2.72;;;2.50;;
37303;SDS011;23188;51.188;16.374;2022-08-23T16:56:10;3.62;;;2.80;;
37303;SDS011;23188;51.188;16.374;2022-08-23T17:00:12;5.17;;;3.15;;
37303;SDS011;23188;51.188;16.374;2022-08-23T17:04:15;4.12;;;3.00;;
37303;SDS011;23188;51.188;16.374;2022-08-23T17:08:18;6.45;;;3.72;;
37303;SDS011;23188;51.188;16.374;2022-08-23T17:12:19;3.12;;;2.62;;
37303;SDS011;23188;51.188;16.374;2022-08-23T17:16:20;4.55;;;3.90;;
37303;SDS011;23188;51.188;16.374;2022-08-23T17:20:24;3.65;;;3.35;;
37303;SDS011;23188;51.188;16.374;2022-08-23T17:24:29;2.87;;;2.35;;
37303;SDS011;23188;51.188;16.374;2022-08-23T17:28:31;3.50;;;3.20;;
37303;SDS011;23188;51.188;16.374;2022-08-23T17:32:32;7.78;;;2.35;;
37303;SDS011;23188;51.188;16.374;2022-08-23T17:36:39;3.58;;;3.27;;
37303;SDS011;23188;51.188;16.374;2022-08-23T17:40:44;4.10;;;2.95;;
37303;SDS011;23188;51.188;16.374;2022-08-23T17:44:45;4.10;;;3.30;;
37303;SDS011;23188;51.188;16.374;2022-08-23T17:48:46;3.52;;;3.22;;
37303;SDS011;23188;51.188;16.374;2022-08-23T17:52:48;5.65;;;5.08;;
37303;SDS011;23188;51.188;16.374;2022-08-23T17:56:52;4.97;;;4.22;;
37303;SDS011;23188;51.188;16.374;2022-08-23T18:00:53;5.17;;;4.20;;
37303;SDS011;23188;51.188;16.374;2022-08-23T18:04:55;4.47;;;3.45;;
37303;SDS011;23188;51.188;16.374;2022-08-23T18:08:56;7.87;;;4.95;;
37303;SDS011;23188;51.188;16.374;2022-08-23T18:12:57;4.78;;;4.37;;
37303;SDS011;23188;51.188;16.374;2022-08-23T18:16:59;7.03;;;5.40;;
37303;SDS011;23188;51.188;16.374;2022-08-23T18:21:04;6.12;;;4.85;;
37303;SDS011;23188;51.188;16.374;2022-08-23T18:25:08;10.38;;;5.17;;
37303;SDS011;23188;51.188;16.374;2022-08-23T18:29:13;5.40;;;4.95;;
37303;SDS011;23188;51.188;16.374;2022-08-23T18:33:16;6.03;;;5.42;;
37303;SDS011;23188;51.188;16.374;2022-08-23T18:37:19;7.30;;;6.03;;
37303;SDS011;23188;51.188;16.374;2022-08-23T18:41:23;6.35;;;5.75;;
37303;SDS011;23188;51.188;16.374;2022-08-23T18:45:24;7.03;;;6.20;;
37303;SDS011;23188;51.188;16.374;2022-08-23T18:49:26;6.92;;;6.22;;
37303;SDS011;23188;51.188;16.374;2022-08-23T18:53:27;7.97;;;5.58;;
37303;SDS011;23188;51.188;16.374;2022-08-23T18:57:28;6.10;;;5.50;;
37303;SDS011;23188;51.188;16.374;2022-08-23T19:01:31;8.60;;;7.45;;
37303;SDS011;23188;51.188;16.374;2022-08-23T19:05:35;8.20;;;6.72;;
37303;SDS011;23188;51.188;16.374;2022-08-23T19:09:37;7.50;;;6.55;;
37303;SDS011;23188;51.188;16.374;2022-08-23T19:13:38;7.78;;;6.97;;
37303;SDS011;23188;51.188;16.374;2022-08-23T19:17:39;7.60;;;6.80;;
37303;SDS011;23188;51.188;16.374;2022-08-23T19:21:41;6.00;;;5.20;;
37303;SDS011;23188;51.188;16.374;2022-08-23T19:25:42;6.17;;;5.58;;
37303;SDS011;23188;51.188;16.374;2022-08-23T19:29:44;6.28;;;5.62;;
37303;SDS011;23188;51.188;16.374;2022-08-23T19:33:45;11.25;;;5.80;;
37303;SDS011;23188;51.188;16.374;2022-08-23T19:37:47;10.78;;;6.62;;
37303;SDS011;23188;51.188;16.374;2022-08-23T19:41:48;7.92;;;7.10;;
37303;SDS011;23188;51.188;16.374;2022-08-23T19:45:50;9.18;;;8.23;;
37303;SDS011;23188;51.188;16.374;2022-08-23T19:49:51;12.28;;;8.50;;
37303;SDS011;23188;51.188;16.374;2022-08-23T19:53:53;9.45;;;7.70;;
37303;SDS011;23188;51.188;16.374;2022-08-23T19:58:04;9.73;;;8.70;;
37303;SDS011;23188;51.188;16.374;2022-08-23T20:02:05;10.93;;;8.70;;
37303;SDS011;23188;51.188;16.374;2022-08-23T20:06:10;8.73;;;6.75;;
37303;SDS011;23188;51.188;16.374;2022-08-23T20:10:12;11.75;;;7.50;;
37303;SDS011;23188;51.188;16.374;2022-08-23T20:14:14;11.85;;;8.98;;
37303;SDS011;23188;51.188;16.374;2022-08-23T20:18:15;9.45;;;8.55;;
37303;SDS011;23188;51.188;16.374;2022-08-23T20:22:17;12.07;;;9.23;;
37303;SDS011;23188;51.188;16.374;2022-08-23T20:26:38;12.28;;;10.43;;
37303;SDS011;23188;51.188;16.374;2022-08-23T20:30:42;16.30;;;11.45;;
37303;SDS011;23188;51.188;16.374;2022-08-23T20:34:43;11.22;;;10.03;;
37303;SDS011;23188;51.188;16.374;2022-08-23T20:38:44;14.00;;;10.50;;
37303;SDS011;23188;51.188;16.374;2022-08-23T20:42:46;16.02;;;11.85;;
37303;SDS011;23188;51.188;16.374;2022-08-23T20:46:49;17.30;;;12.40;;
37303;SDS011;23188;51.188;16.374;2022-08-23T20:50:51;19.98;;;13.90;;
37303;SDS011;23188;51.188;16.374;2022-08-23T20:54:52;24.35;;;14.50;;
37303;SDS011;23188;51.188;16.374;2022-08-23T20:58:53;22.42;;;16.32;;
37303;SDS011;23188;51.188;16.374;2022-08-23T21:02:55;24.07;;;17.40;;
37303;SDS011;23188;51.188;16.374;2022-08-23T21:06:56;29.07;;;21.12;;
37303;SDS011;23188;51.188;16.374;2022-08-23T21:10:57;21.95;;;18.42;;
37303;SDS011;23188;51.188;16.374;2022-08-23T21:14:59;27.60;;;19.87;;
37303;SDS011;23188;51.188;16.374;2022-08-23T21:19:01;33.83;;;20.20;;
37303;SDS011;23188;51.188;16.374;2022-08-23T21:23:02;25.48;;;20.72;;
37303;SDS011;23188;51.188;16.374;2022-08-23T21:27:03;31.85;;;20.37;;
37303;SDS011;23188;51.188;16.374;2022-08-23T21:31:13;23.47;;;20.00;;
37303;SDS011;23188;51.188;16.374;2022-08-23T21:35:15;26.50;;;18.52;;
37303;SDS011;23188;51.188;16.374;2022-08-23T21:39:16;23.85;;;19.60;;
37303;SDS011;23188;51.188;16.374;2022-08-23T21:43:17;28.02;;;20.40;;
37303;SDS011;23188;51.188;16.374;2022-08-23T21:47:18;25.02;;;20.62;;
37303;SDS011;23188;51.188;16.374;2022-08-23T21:51:20;25.05;;;19.32;;
37303;SDS011;23188;51.188;16.374;2022-08-23T21:55:21;23.85;;;20.68;;
37303;SDS011;23188;51.188;16.374;2022-08-23T21:59:22;22.45;;;18.12;;
37303;SDS011;23188;51.188;16.374;2022-08-23T22:03:23;26.97;;;20.75;;
37303;SDS011;23188;51.188;16.374;2022-08-23T22:07:25;23.50;;;19.25;;
37303;SDS011;23188;51.188;16.374;2022-08-23T22:11:26;25.02;;;21.52;;
37303;SDS011;23188;51.188;16.374;2022-08-23T22:15:27;25.75;;;19.40;;
37303;SDS011;23188;51.188;16.374;2022-08-23T22:19:29;26.52;;;19.92;;
37303;SDS011;23188;51.188;16.374;2022-08-23T22:23:30;30.55;;;20.88;;
37303;SDS011;23188;51.188;16.374;2022-08-23T22:27:32;29.63;;;21.00;;
37303;SDS011;23188;51.188;16.374;2022-08-23T22:31:33;36.25;;;21.75;;
37303;SDS011;23188;51.188;16.374;2022-08-23T22:35:35;24.07;;;18.87;;
37303;SDS011;23188;51.188;16.374;2022-08-23T22:39:36;22.75;;;18.60;;
37303;SDS011;23188;51.188;16.374;2022-08-23T22:43:38;26.73;;;17.87;;
37303;SDS011;23188;51.188;16.374;2022-08-23T22:47:39;29.50;;;22.95;;
37303;SDS011;23188;51.188;16.374;2022-08-23T22:51:40;24.35;;;20.10;;
37303;SDS011;23188;51.188;16.374;2022-08-23T22:55:41;28.25;;;20.60;;
37303;SDS011;23188;51.188;16.374;2022-08-23T22:59:49;32.70;;;21.35;;
37303;SDS011;23188;51.188;16.374;2022-08-23T23:03:51;29.40;;;22.00;;
37303;SDS011;23188;51.188;16.374;2022-08-23T23:07:54;29.72;;;23.25;;
37303;SDS011;23188;51.188;16.374;2022-08-23T23:12:13;30.48;;;22.75;;
37303;SDS011;23188;51.188;16.374;2022-08-23T23:16:17;46.48;;;25.50;;
37303;SDS011;23188;51.188;16.374;2022-08-23T23:20:22;35.20;;;26.60;;
37303;SDS011;23188;51.188;16.374;2022-08-23T23:24:39;33.58;;;22.22;;
37303;SDS011;23188;51.188;16.374;2022-08-23T23:28:40;35.15;;;25.12;;
37303;SDS011;23188;51.188;16.374;2022-08-23T23:32:41;33.05;;;23.67;;
37303;SDS011;23188;51.188;16.374;2022-08-23T23:36:43;35.03;;;25.20;;
37303;SDS011;23188;51.188;16.374;2022-08-23T23:40:44;43.13;;;26.40;;
37303;SDS011;23188;51.188;16.374;2022-08-23T23:44:45;34.48;;;25.23;;
37303;SDS011;23188;51.188;16.374;2022-08-23T23:48:47;42.43;;;26.73;;
37303;SDS011;23188;51.188;16.374;2022-08-23T23:52:50;40.28;;;30.05;;
37303;SDS011;23188;51.188;16.374;2022-08-23T23:56:51;32.25;;;23.62;;
